Bradninch, United Kingdom
Current Conditions -  °F | °C
As of 10:50 PM on Wednesday 17 Dec 2014 (Local Time) from EGTE Reporting Station
Broken Clouds Broken Clouds  
Wind Chill: 55°   Ceiling: 1700
Heat Index: 55°   Visibility: 6mi
Dew Point: 52°   Wind: 16mph
Humidity: 88%   Direction: 280°W
Pressure: 29.88"   Gusts: NA
Location:  50.83°N, 3.42°W
Report Text: EGTE 172250Z 28014KT 9999 BKN017 13/11 Q1012
Loading
Personal Weather Stations






























Interactive Weather Map New forecast layout! Learn more

10-Day Weather Forecast

Advertisements
Track Severe Weather on mobile